SBSN

Details ICAO SBSN (STM)
Name SANTAREM
Region Brazil
Timezone America/Santarem (UTC-3.0)
Plans Departing 32
Arriving 43
Stats Elevation 198 ft / 60 m (AMSL)
Location -2.422430° -54.792788°
Runways 1
Magnetic Variation 18.344° W
Sunrise 2017-12-13 09:27:05 UTC / 2017-12-13 06:27:05 Local
Sunset 2017-12-13 21:42:38 UTC / 2017-12-13 18:42:38 Local
Advertisement - Login to hide

Runways

ID Width Length Bearing (true) Bearing (mag) Surface Threshold Offset Overrun Length
10 148 ft / 45 m 7,873 ft / 2,400 m 80.69° 99.03° Asphalt 0 ft / 0 m 245 ft / 75 m
28 148 ft / 45 m 7,873 ft / 2,400 m 260.69° 279.03° Asphalt 0 ft / 0 m 202 ft / 62 m

Approach Navaids

Runway Type Ident Frequency Range Bearing (true) Bearing (mag) Slope Elevation
10 Localiser ISN 109.30 MHz 18 nm / 33 km 81.06° 99.40° - 198 ft / 60 m (AMSL)

Map

Weather


0- 5 10 15 20 25 30 35+ Temperature / ° C

Clouds and Precipitation
Forecast for 2017-12-14 00:00 UTC. Updated an hour ago

Ground ~20,000 ft ~40,000 ft Winds

METAR

SBSN 140000Z 00000KT 9999 TS SCT013 FEW020CB BKN100 24/23 Q1011

TAF

TAF SBSN 132200Z 1400/1424 13005KT 9999 FEW015 TN24/1404Z TX31/1419Z BECMG 1403/1405 17008KT BECMG 1409/1411 09005KT SCT017 BECMG 1416/1418 FEW020 FEW025TCU RMK PEN

Frequencies

Tower 118.10 MHz TWR
Approach 131.40 MHz APP
Approach 119.30 MHz APP
Warning: Do not use this data for real-world aviation or navigation. No guarantee of current accuracy is given.